Time;durP1;ratioP1;P1;durP2;ratioP2;P2;SDS_P1;SDS_P2;PMS_P1;PMS_P2;Temp;Humidity;BMP_temperature;BMP_pressure;BME280_temperature;BME280_humidity;BME280_pressure;Samples;Min_cycle;Max_cycle;Signal;HPM_P1;HPM_P2
2023/05/14 00:01:19;;;;;;;22.27;13.15;;;;;;;;;;6272092;28;20041;-57
2023/05/14 00:04:19;;;;;;;22.38;12.63;;;;;;;;;;6286102;28;20044;-60
2023/05/14 00:07:20;;;;;;;23.08;11.88;;;;;;;;;;6268080;28;20490;-61
2023/05/14 00:10:21;;;;;;;20.35;11.70;;;;;;;;;;6270838;28;20279;-60
2023/05/14 00:13:22;;;;;;;22.85;11.70;;;;;;;;;;6269060;28;20041;-53
2023/05/14 00:16:22;;;;;;;21.77;11.25;;;;;;;;;;6269525;28;20407;-58
2023/05/14 00:19:23;;;;;;;21.95;11.75;;;;;;;;;;6271823;28;20136;-59
2023/05/14 00:22:23;;;;;;;19.45;12.32;;;;;;;;;;6269239;28;20408;-58
2023/05/14 00:25:24;;;;;;;18.55;12.20;;;;;;;;;;6267994;28;20078;-59
2023/05/14 00:28:25;;;;;;;19.40;12.18;;;;;;;;;;6277527;28;20040;-60
2023/05/14 00:31:25;;;;;;;19.95;10.88;;;;;;;;;;6268724;28;20044;-60
2023/05/14 00:34:26;;;;;;;22.40;11.73;;;;;;;;;;6270670;28;20431;-57
2023/05/14 00:37:27;;;;;;;24.08;12.25;;;;;;;;;;6272852;28;20493;-51
2023/05/14 00:40:27;;;;;;;22.15;12.52;;;;;;;;;;6280043;28;20414;-58
2023/05/14 00:43:29;;;;;;;21.92;13.07;;;;;;;;;;6266037;28;20397;-58
2023/05/14 00:46:30;;;;;;;21.35;12.40;;;;;;;;;;6270966;28;20060;-57
2023/05/14 00:49:31;;;;;;;18.58;10.98;;;;;;;;;;6264569;28;20106;-60
2023/05/14 00:52:32;;;;;;;19.55;11.43;;;;;;;;;;6268389;28;20381;-60
2023/05/14 00:55:32;;;;;;;18.17;11.57;;;;;;;;;;6266224;28;20049;-58
2023/05/14 00:58:33;;;;;;;19.27;11.30;;;;;;;;;;6271188;28;20055;-59
2023/05/14 01:01:34;;;;;;;19.38;11.65;;;;;;;;;;6269565;28;20053;-58
2023/05/14 01:04:34;;;;;;;19.67;11.50;;;;;;;;;;6270871;28;20036;-59
2023/05/14 01:07:52;;;;;;;20.05;12.73;;;;;;;;;;6267350;28;20140;-61
2023/05/14 01:11:02;;;;;;;19.55;12.13;;;;;;;;;;6268171;28;20079;-55
2023/05/14 01:14:13;;;;;;;23.67;12.27;;;;;;;;;;6268930;28;20534;-59
2023/05/14 01:17:18;;;;;;;23.38;12.43;;;;;;;;;;6266682;28;20053;-56
2023/05/14 01:20:19;;;;;;;20.48;12.10;;;;;;;;;;6269400;28;20049;-61
2023/05/14 01:23:20;;;;;;;18.33;10.88;;;;;;;;;;6268850;28;20056;-59
2023/05/14 01:26:21;;;;;;;20.15;12.27;;;;;;;;;;6270675;28;20077;-58
2023/05/14 01:29:23;;;;;;;19.75;12.18;;;;;;;;;;6266824;28;20400;-60
2023/05/14 01:32:25;;;;;;;22.67;12.10;;;;;;;;;;6268032;28;20150;-59
2023/05/14 01:35:27;;;;;;;21.55;11.75;;;;;;;;;;6271736;28;20048;-59
2023/05/14 01:38:30;;;;;;;22.98;12.20;;;;;;;;;;6272041;28;20051;-60
2023/05/14 01:41:32;;;;;;;20.80;12.13;;;;;;;;;;6270720;28;20040;-58
2023/05/14 01:44:33;;;;;;;21.92;13.10;;;;;;;;;;6268603;28;20048;-60
2023/05/14 01:47:33;;;;;;;19.90;12.13;;;;;;;;;;6266984;28;20060;-57
2023/05/14 01:50:34;;;;;;;23.08;13.75;;;;;;;;;;6272039;28;20053;-57
2023/05/14 01:53:34;;;;;;;22.38;13.32;;;;;;;;;;6267454;28;20071;-56
2023/05/14 01:56:35;;;;;;;23.60;14.57;;;;;;;;;;6266662;28;20072;-57
2023/05/14 01:59:35;;;;;;;21.85;13.30;;;;;;;;;;6268877;28;20047;-61
2023/05/14 02:02:36;;;;;;;27.65;13.80;;;;;;;;;;6268341;28;20512;-60
2023/05/14 02:05:36;;;;;;;24.25;13.23;;;;;;;;;;6268024;28;20462;-57
2023/05/14 02:08:37;;;;;;;22.83;12.95;;;;;;;;;;6267876;28;20617;-57
2023/05/14 02:11:38;;;;;;;21.25;12.40;;;;;;;;;;6266845;28;20414;-59
2023/05/14 02:14:39;;;;;;;22.13;12.98;;;;;;;;;;6266567;28;20051;-60
2023/05/14 02:17:39;;;;;;;20.08;12.13;;;;;;;;;;6267433;28;20045;-57
2023/05/14 02:20:40;;;;;;;22.80;13.05;;;;;;;;;;6267265;28;20049;-56
2023/05/14 02:23:41;;;;;;;24.38;12.98;;;;;;;;;;6264893;28;20044;-59
2023/05/14 02:26:42;;;;;;;23.35;13.88;;;;;;;;;;6266793;28;20055;-59
2023/05/14 02:29:43;;;;;;;22.27;12.23;;;;;;;;;;6267777;28;20045;-61
2023/05/14 02:32:44;;;;;;;24.47;12.30;;;;;;;;;;6269399;28;20041;-58
2023/05/14 02:35:45;;;;;;;20.83;11.88;;;;;;;;;;6268604;28;20048;-58
2023/05/14 02:38:45;;;;;;;24.02;14.57;;;;;;;;;;6269166;28;20084;-60
2023/05/14 02:41:46;;;;;;;23.45;13.65;;;;;;;;;;6267327;28;20412;-57
2023/05/14 02:44:47;;;;;;;21.35;12.43;;;;;;;;;;6268011;28;20492;-60
2023/05/14 02:47:47;;;;;;;21.45;12.55;;;;;;;;;;6263544;28;20045;-59
2023/05/14 02:50:48;;;;;;;23.20;12.55;;;;;;;;;;6265559;28;20103;-60
2023/05/14 02:53:49;;;;;;;22.15;13.95;;;;;;;;;;6266869;28;20098;-58
2023/05/14 02:56:50;;;;;;;17.88;11.95;;;;;;;;;;6268360;28;20053;-60
2023/05/14 02:59:50;;;;;;;19.80;12.27;;;;;;;;;;6267171;28;20806;-61
2023/05/14 03:02:51;;;;;;;17.88;11.00;;;;;;;;;;6265481;28;20079;-60
2023/05/14 03:05:51;;;;;;;20.77;11.73;;;;;;;;;;6267867;28;22325;-60
2023/05/14 03:08:52;;;;;;;19.30;11.52;;;;;;;;;;6265270;28;20655;-60
2023/05/14 03:11:53;;;;;;;17.05;11.18;;;;;;;;;;6265677;28;20048;-59
2023/05/14 03:14:54;;;;;;;17.40;10.87;;;;;;;;;;6271266;28;20075;-59
2023/05/14 03:17:54;;;;;;;17.77;11.77;;;;;;;;;;6273901;28;20052;-60
2023/05/14 03:20:55;;;;;;;18.58;11.60;;;;;;;;;;6267774;28;20076;-58
2023/05/14 03:23:56;;;;;;;17.40;11.27;;;;;;;;;;6271814;28;20044;-59
2023/05/14 03:26:56;;;;;;;21.23;12.25;;;;;;;;;;6269346;28;20529;-57
2023/05/14 03:29:57;;;;;;;19.30;12.07;;;;;;;;;;6272705;28;20049;-57
2023/05/14 03:32:58;;;;;;;17.98;11.32;;;;;;;;;;6271729;28;20048;-59
2023/05/14 03:35:58;;;;;;;18.67;11.55;;;;;;;;;;6268962;28;20048;-60
2023/05/14 03:38:59;;;;;;;19.40;11.18;;;;;;;;;;6278237;28;20044;-58
2023/05/14 03:41:59;;;;;;;18.02;11.07;;;;;;;;;;6285575;28;20041;-60
2023/05/14 03:45:00;;;;;;;18.85;10.88;;;;;;;;;;6269682;28;20144;-58
2023/05/14 03:48:01;;;;;;;15.50;9.93;;;;;;;;;;6270284;28;20562;-60
2023/05/14 03:51:01;;;;;;;18.05;10.90;;;;;;;;;;6269930;28;20037;-59
2023/05/14 03:54:02;;;;;;;16.75;10.55;;;;;;;;;;6270230;28;20048;-60
2023/05/14 03:57:03;;;;;;;18.48;11.27;;;;;;;;;;6270760;28;20504;-59
2023/05/14 04:00:04;;;;;;;17.85;10.75;;;;;;;;;;6273155;28;20073;-54
2023/05/14 04:03:05;;;;;;;15.60;10.05;;;;;;;;;;6270495;28;20413;-59
2023/05/14 04:06:06;;;;;;;17.48;10.40;;;;;;;;;;6267876;28;20072;-57
2023/05/14 04:09:07;;;;;;;16.70;11.02;;;;;;;;;;6270491;28;20064;-58
2023/05/14 04:12:07;;;;;;;16.88;10.25;;;;;;;;;;6269633;28;20063;-60
2023/05/14 04:15:09;;;;;;;18.67;10.40;;;;;;;;;;6267850;28;20044;-59
2023/05/14 04:18:09;;;;;;;16.75;9.93;;;;;;;;;;6269988;28;20049;-60
2023/05/14 04:21:10;;;;;;;20.92;10.65;;;;;;;;;;6271121;28;20419;-59
2023/05/14 04:24:10;;;;;;;18.83;11.40;;;;;;;;;;6269290;28;20055;-60
2023/05/14 04:27:18;;;;;;;15.73;9.32;;;;;;;;;;6268530;28;20126;-59
2023/05/14 04:30:18;;;;;;;17.52;10.55;;;;;;;;;;6267162;28;20063;-61
2023/05/14 04:33:19;;;;;;;16.75;10.45;;;;;;;;;;6268193;28;20044;-59
2023/05/14 04:36:20;;;;;;;17.38;10.77;;;;;;;;;;6267861;28;20045;-57
2023/05/14 04:39:21;;;;;;;17.58;10.25;;;;;;;;;;6270483;28;20552;-58
2023/05/14 04:42:21;;;;;;;19.63;10.73;;;;;;;;;;6270185;28;20075;-59
2023/05/14 04:45:22;;;;;;;17.98;11.10;;;;;;;;;;6269715;28;20051;-59
2023/05/14 04:48:23;;;;;;;15.48;9.88;;;;;;;;;;6268213;28;20048;-57
2023/05/14 04:51:23;;;;;;;17.33;10.38;;;;;;;;;;6268459;28;20431;-60
2023/05/14 04:54:24;;;;;;;14.70;9.65;;;;;;;;;;6267147;28;20047;-60
2023/05/14 04:57:25;;;;;;;16.15;9.55;;;;;;;;;;6270481;28;20151;-60
2023/05/14 05:00:25;;;;;;;14.98;9.25;;;;;;;;;;6276673;28;20041;-60
2023/05/14 05:03:26;;;;;;;15.52;8.70;;;;;;;;;;6266765;28;20044;-59
2023/05/14 05:06:27;;;;;;;13.48;8.80;;;;;;;;;;6267152;28;20423;-60
2023/05/14 05:09:28;;;;;;;14.27;8.40;;;;;;;;;;6268884;28;20041;-57
2023/05/14 05:12:28;;;;;;;14.88;8.95;;;;;;;;;;6267674;28;20044;-61
2023/05/14 05:15:29;;;;;;;13.25;8.70;;;;;;;;;;6266016;28;20056;-59
2023/05/14 05:18:30;;;;;;;12.52;7.93;;;;;;;;;;6266435;28;20095;-60
2023/05/14 05:21:30;;;;;;;12.50;8.18;;;;;;;;;;6275729;28;20488;-60
2023/05/14 05:24:31;;;;;;;12.45;8.10;;;;;;;;;;6264608;28;20495;-61
2023/05/14 05:27:32;;;;;;;10.95;7.07;;;;;;;;;;6265812;28;20083;-59
2023/05/14 05:30:32;;;;;;;12.82;7.38;;;;;;;;;;6266489;28;20049;-57
2023/05/14 05:33:34;;;;;;;12.02;7.25;;;;;;;;;;6265925;28;20068;-58
2023/05/14 05:36:35;;;;;;;12.00;7.15;;;;;;;;;;6267382;28;20503;-54
2023/05/14 05:39:35;;;;;;;11.65;7.50;;;;;;;;;;6266520;28;20048;-56
2023/05/14 05:42:36;;;;;;;12.02;7.45;;;;;;;;;;6266967;28;20041;-59
2023/05/14 05:45:36;;;;;;;14.57;8.00;;;;;;;;;;6262892;28;20044;-60
2023/05/14 05:48:37;;;;;;;13.43;8.32;;;;;;;;;;6263469;28;20515;-60
2023/05/14 05:51:38;;;;;;;10.85;7.18;;;;;;;;;;6265386;28;20072;-59
2023/05/14 05:54:38;;;;;;;11.13;7.07;;;;;;;;;;6267867;28;20056;-60
2023/05/14 05:57:39;;;;;;;9.18;5.80;;;;;;;;;;6267332;28;20067;-59
2023/05/14 06:00:40;;;;;;;9.63;6.15;;;;;;;;;;6268422;28;20049;-59
2023/05/14 06:03:40;;;;;;;10.82;6.57;;;;;;;;;;6267970;28;20048;-60
2023/05/14 06:06:41;;;;;;;9.45;6.20;;;;;;;;;;6268008;28;20060;-61
2023/05/14 06:09:41;;;;;;;12.45;6.30;;;;;;;;;;6267380;28;20128;-59
2023/05/14 06:12:42;;;;;;;10.35;6.68;;;;;;;;;;6269055;28;20422;-59
2023/05/14 06:15:43;;;;;;;9.48;6.63;;;;;;;;;;6264183;28;20072;-61
2023/05/14 06:18:43;;;;;;;9.88;6.28;;;;;;;;;;6267583;28;20048;-60
2023/05/14 06:21:44;;;;;;;9.00;6.00;;;;;;;;;;6265884;28;20411;-53
2023/05/14 06:24:44;;;;;;;13.38;7.43;;;;;;;;;;6268006;28;20060;-59
2023/05/14 06:27:45;;;;;;;12.13;6.88;;;;;;;;;;6264695;28;20072;-59
2023/05/14 06:30:48;;;;;;;10.50;6.60;;;;;;;;;;6269960;28;20048;-60
2023/05/14 06:33:49;;;;;;;21.98;7.55;;;;;;;;;;6266802;28;20093;-55
2023/05/14 06:36:50;;;;;;;10.27;6.95;;;;;;;;;;6269017;28;20159;-58
2023/05/14 06:39:51;;;;;;;9.05;5.75;;;;;;;;;;6265281;28;20068;-60
2023/05/14 06:42:51;;;;;;;7.88;5.47;;;;;;;;;;6265916;28;20306;-61
2023/05/14 06:45:52;;;;;;;9.35;5.40;;;;;;;;;;6266861;28;20056;-60
2023/05/14 06:48:53;;;;;;;9.52;5.75;;;;;;;;;;6266414;28;20476;-59
2023/05/14 06:51:53;;;;;;;10.18;5.00;;;;;;;;;;6270619;28;20084;-54
2023/05/14 06:54:54;;;;;;;8.50;5.85;;;;;;;;;;6265562;28;20049;-59
2023/05/14 06:57:54;;;;;;;9.48;6.25;;;;;;;;;;6271868;28;20040;-60
2023/05/14 07:00:55;;;;;;;10.25;5.93;;;;;;;;;;6272225;28;20389;-57
2023/05/14 07:03:56;;;;;;;9.82;6.28;;;;;;;;;;6273849;28;20048;-60
2023/05/14 07:06:56;;;;;;;8.55;5.78;;;;;;;;;;6270095;28;20052;-59
2023/05/14 07:09:57;;;;;;;7.35;5.10;;;;;;;;;;6269677;28;20762;-58
2023/05/14 07:12:57;;;;;;;7.88;4.97;;;;;;;;;;6269644;28;20041;-60
2023/05/14 07:15:58;;;;;;;7.15;5.07;;;;;;;;;;6271824;28;20076;-58
2023/05/14 07:18:58;;;;;;;9.10;4.78;;;;;;;;;;6269893;28;20048;-59
2023/05/14 07:22:00;;;;;;;7.18;4.90;;;;;;;;;;6269667;28;20071;-60
2023/05/14 07:25:01;;;;;;;8.80;5.07;;;;;;;;;;6268344;28;20052;-58
2023/05/14 07:28:02;;;;;;;8.20;4.97;;;;;;;;;;6275912;28;20048;-60
2023/05/14 07:31:07;;;;;;;7.95;4.97;;;;;;;;;;6280072;28;20052;-58
2023/05/14 07:34:09;;;;;;;8.00;5.10;;;;;;;;;;6292650;28;20895;-55
2023/05/14 07:37:10;;;;;;;9.70;5.30;;;;;;;;;;6293750;28;20044;-56
2023/05/14 07:40:11;;;;;;;9.15;5.78;;;;;;;;;;6281281;28;20459;-54
2023/05/14 07:43:11;;;;;;;7.97;4.88;;;;;;;;;;6292511;28;20045;-58
2023/05/14 07:46:13;;;;;;;8.00;4.38;;;;;;;;;;6272539;28;20085;-61
2023/05/14 07:49:14;;;;;;;7.43;5.18;;;;;;;;;;6281800;28;20053;-53
2023/05/14 07:52:14;;;;;;;8.85;5.65;;;;;;;;;;6273812;28;20337;-58
2023/05/14 07:55:15;;;;;;;8.77;5.30;;;;;;;;;;6293147;28;20045;-60
2023/05/14 07:58:16;;;;;;;8.52;5.78;;;;;;;;;;6281357;28;20040;-54
2023/05/14 08:01:17;;;;;;;9.88;5.70;;;;;;;;;;6289510;28;20414;-61
2023/05/14 08:04:17;;;;;;;11.48;6.18;;;;;;;;;;6292779;28;20049;-60
2023/05/14 08:07:18;;;;;;;7.90;5.60;;;;;;;;;;6293389;28;20060;-60
2023/05/14 08:10:18;;;;;;;10.00;5.60;;;;;;;;;;6293362;28;20067;-60
2023/05/14 08:13:19;;;;;;;8.15;5.47;;;;;;;;;;6286577;28;20052;-55
2023/05/14 08:16:20;;;;;;;8.20;5.35;;;;;;;;;;6282304;28;20102;-61
2023/05/14 08:19:20;;;;;;;8.35;5.53;;;;;;;;;;6289402;28;20067;-60
2023/05/14 08:22:21;;;;;;;9.80;5.82;;;;;;;;;;6271674;28;20131;-61
2023/05/14 08:25:21;;;;;;;9.80;5.82;;;;;;;;;;6292906;28;20052;-61
2023/05/14 08:28:22;;;;;;;8.38;5.68;;;;;;;;;;6292299;28;20127;-61
2023/05/14 08:31:22;;;;;;;8.60;5.32;;;;;;;;;;6292058;28;20048;-63
2023/05/14 08:34:23;;;;;;;7.95;5.38;;;;;;;;;;6292386;28;20048;-62
2023/05/14 08:37:23;;;;;;;8.25;5.70;;;;;;;;;;6293372;28;20049;-60
2023/05/14 08:40:25;;;;;;;10.57;6.30;;;;;;;;;;6291879;28;20411;-60
2023/05/14 08:43:28;;;;;;;9.05;6.30;;;;;;;;;;6284681;28;20376;-60
2023/05/14 08:46:29;;;;;;;9.40;6.20;;;;;;;;;;6290933;28;20446;-62
2023/05/14 08:49:40;;;;;;;9.18;6.47;;;;;;;;;;6269799;28;20563;-55
2023/05/14 08:52:41;;;;;;;10.85;6.15;;;;;;;;;;6279472;28;20045;-63
2023/05/14 08:55:43;;;;;;;8.20;6.13;;;;;;;;;;6266715;28;20053;-57
2023/05/14 08:58:44;;;;;;;;;;;;;;;;;;6283449;28;20501;-61
2023/05/14 09:01:47;;;;;;;9.63;6.22;;;;;;;;;;6290401;28;19928;-60
2023/05/14 09:04:53;;;;;;;8.35;6.20;;;;;;;;;;6290703;28;21028;-60
2023/05/14 09:07:53;;;;;;;9.88;6.25;;;;;;;;;;6291361;28;20048;-60
2023/05/14 09:10:54;;;;;;;9.10;6.35;;;;;;;;;;6290587;28;20048;-58
2023/05/14 09:13:54;;;;;;;10.05;6.00;;;;;;;;;;6289948;28;20053;-60
2023/05/14 09:16:55;;;;;;;9.45;6.68;;;;;;;;;;6289048;28;20060;-60
2023/05/14 09:19:57;;;;;;;8.93;6.20;;;;;;;;;;6274356;28;20040;-60
2023/05/14 09:23:01;;;;;;;9.77;6.22;;;;;;;;;;6277217;28;20492;-60
2023/05/14 09:26:05;;;;;;;7.90;6.10;;;;;;;;;;6265832;28;20511;-57
2023/05/14 09:29:05;;;;;;;10.85;6.60;;;;;;;;;;6273606;28;20875;-63
2023/05/14 09:32:09;;;;;;;7.65;5.88;;;;;;;;;;6271157;28;20059;-62
2023/05/14 09:35:16;;;;;;;8.38;5.57;;;;;;;;;;6288773;28;20071;-63
2023/05/14 09:38:16;;;;;;;8.85;5.95;;;;;;;;;;6267678;28;20132;-55
2023/05/14 09:41:18;;;;;;;9.35;5.78;;;;;;;;;;6283289;28;20167;-58
2023/05/14 09:44:18;;;;;;;6.90;4.95;;;;;;;;;;6286431;28;20086;-59
2023/05/14 09:47:19;;;;;;;7.53;4.87;;;;;;;;;;6283694;28;20044;-60
2023/05/14 09:50:20;;;;;;;8.60;5.32;;;;;;;;;;6280898;28;20047;-59
2023/05/14 09:53:21;;;;;;;6.87;5.20;;;;;;;;;;6276163;28;20127;-61
2023/05/14 09:56:21;;;;;;;8.98;5.55;;;;;;;;;;6271930;28;20040;-56
2023/05/14 09:59:22;;;;;;;8.27;5.73;;;;;;;;;;6285671;28;20481;-62
2023/05/14 10:02:24;;;;;;;7.70;4.97;;;;;;;;;;6289037;28;20441;-60
2023/05/14 10:05:26;;;;;;;8.63;5.20;;;;;;;;;;6278763;28;20446;-61
2023/05/14 10:08:33;;;;;;;8.18;5.88;;;;;;;;;;6275157;28;20056;-58
2023/05/14 10:11:37;;;;;;;6.88;5.07;;;;;;;;;;6278425;28;20062;-58
2023/05/14 10:14:41;;;;;;;7.85;5.18;;;;;;;;;;6265950;28;20126;-57
2023/05/14 10:17:47;;;;;;;7.32;4.32;;;;;;;;;;6284315;28;20127;-61
2023/05/14 10:20:59;;;;;;;6.80;4.80;;;;;;;;;;6283219;28;20072;-61
2023/05/14 10:24:01;;;;;;;7.95;5.20;;;;;;;;;;6276759;28;20052;-53
2023/05/14 10:27:01;;;;;;;6.82;4.80;;;;;;;;;;6291295;28;20130;-59
2023/05/14 10:30:09;;;;;;;8.40;5.10;;;;;;;;;;6283358;28;20048;-62
2023/05/14 10:33:15;;;;;;;7.88;5.93;;;;;;;;;;6282252;28;20048;-60
2023/05/14 10:36:17;;;;;;;8.10;5.05;;;;;;;;;;6283052;28;20045;-57
2023/05/14 10:39:18;;;;;;;6.72;5.05;;;;;;;;;;6285935;28;20131;-62
2023/05/14 10:42:21;;;;;;;6.73;4.73;;;;;;;;;;6284960;28;20214;-59
2023/05/14 10:45:22;;;;;;;6.47;4.70;;;;;;;;;;6283910;28;20179;-60
2023/05/14 10:48:24;;;;;;;8.70;5.13;;;;;;;;;;6285091;28;20048;-50
2023/05/14 10:51:24;;;;;;;7.15;4.90;;;;;;;;;;6286418;28;20052;-62
2023/05/14 10:54:27;;;;;;;6.43;4.83;;;;;;;;;;6274589;28;20056;-61
2023/05/14 10:57:30;;;;;;;5.95;4.40;;;;;;;;;;6273996;28;20502;-60
2023/05/14 11:00:34;;;;;;;5.40;3.90;;;;;;;;;;6277367;28;20059;-61
2023/05/14 11:03:42;;;;;;;6.75;4.38;;;;;;;;;;6273132;28;20068;-64
2023/05/14 11:06:45;;;;;;;7.03;4.32;;;;;;;;;;6274292;28;20053;-56
2023/05/14 11:09:46;;;;;;;6.35;4.55;;;;;;;;;;6272849;28;20040;-59
2023/05/14 11:12:49;;;;;;;5.87;3.97;;;;;;;;;;6271038;28;20572;-62
2023/05/14 11:15:50;;;;;;;5.55;4.00;;;;;;;;;;6274687;28;20672;-62
2023/05/14 11:19:02;;;;;;;4.93;3.70;;;;;;;;;;6274484;28;20442;-59
2023/05/14 11:22:02;;;;;;;6.15;4.10;;;;;;;;;;6276130;28;20407;-59
2023/05/14 11:25:05;;;;;;;6.43;4.20;;;;;;;;;;6272398;28;20102;-61
2023/05/14 11:28:06;;;;;;;7.10;3.80;;;;;;;;;;6274691;28;20511;-61
2023/05/14 11:31:06;;;;;;;6.55;4.07;;;;;;;;;;6274377;28;20122;-59
2023/05/14 11:34:08;;;;;;;6.73;5.00;;;;;;;;;;6271758;28;20458;-61
2023/05/14 11:37:11;;;;;;;6.18;4.15;;;;;;;;;;6276661;28;20052;-62
2023/05/14 11:40:15;;;;;;;7.55;4.25;;;;;;;;;;6274224;28;20053;-56
2023/05/14 11:43:16;;;;;;;8.18;5.03;;;;;;;;;;6272334;28;20051;-62
2023/05/14 11:46:17;;;;;;;7.70;4.77;;;;;;;;;;6272236;28;20049;-59
2023/05/14 11:49:20;;;;;;;7.43;4.68;;;;;;;;;;6272797;28;20040;-62
2023/05/14 11:52:21;;;;;;;6.40;4.38;;;;;;;;;;6275361;28;20167;-59
2023/05/14 11:55:22;;;;;;;6.60;4.23;;;;;;;;;;6272267;28;20040;-60
2023/05/14 11:58:25;;;;;;;5.87;4.07;;;;;;;;;;6274517;28;20044;-61
2023/05/14 12:01:27;;;;;;;7.70;4.10;;;;;;;;;;6274357;28;20051;-53
2023/05/14 12:04:28;;;;;;;7.13;4.03;;;;;;;;;;6273975;28;20382;-62
2023/05/14 12:07:29;;;;;;;5.47;3.10;;;;;;;;;;6273090;28;20056;-62
2023/05/14 12:10:40;;;;;;;4.67;2.93;;;;;;;;;;6271440;28;20530;-61
2023/05/14 12:13:41;;;;;;;5.53;3.13;;;;;;;;;;6272234;28;20048;-58
2023/05/14 12:16:45;;;;;;;5.60;2.50;;;;;;;;;;6272535;28;20662;-62
2023/05/14 12:19:50;;;;;;;4.18;2.47;;;;;;;;;;6271052;28;20048;-56
2023/05/14 12:22:50;;;;;;;6.43;2.88;;;;;;;;;;6269448;28;20949;-62
2023/05/14 12:25:51;;;;;;;4.30;2.67;;;;;;;;;;6274253;28;20102;-62
2023/05/14 12:29:02;;;;;;;5.13;2.40;;;;;;;;;;6273324;28;20053;-57
2023/05/14 12:32:08;;;;;;;7.10;2.67;;;;;;;;;;6270756;28;20060;-59
2023/05/14 12:35:08;;;;;;;3.90;2.35;;;;;;;;;;6268136;28;20052;-60
2023/05/14 12:38:09;;;;;;;4.83;2.60;;;;;;;;;;6269743;28;20476;-59
2023/05/14 12:41:10;;;;;;;5.90;3.27;;;;;;;;;;6276479;28;20305;-60
2023/05/14 12:44:11;;;;;;;5.50;2.90;;;;;;;;;;6277868;28;20479;-63
2023/05/14 12:47:11;;;;;;;3.97;2.43;;;;;;;;;;6279541;28;20131;-62
2023/05/14 12:50:12;;;;;;;3.80;2.30;;;;;;;;;;6280666;28;20135;-61
2023/05/14 12:53:15;;;;;;;3.57;2.23;;;;;;;;;;6279416;28;20078;-60
2023/05/14 12:56:15;;;;;;;4.07;2.78;;;;;;;;;;6279107;28;20062;-59
2023/05/14 12:59:16;;;;;;;6.37;3.43;;;;;;;;;;6279284;28;20063;-60
2023/05/14 13:02:17;;;;;;;4.87;3.00;;;;;;;;;;6277959;28;20109;-61
2023/05/14 13:05:18;;;;;;;5.38;3.45;;;;;;;;;;6277909;28;20093;-60
2023/05/14 13:08:25;;;;;;;3.77;2.53;;;;;;;;;;6282759;28;20040;-60
2023/05/14 13:11:28;;;;;;;4.43;2.95;;;;;;;;;;6280963;28;20621;-61
2023/05/14 13:14:29;;;;;;;6.55;3.90;;;;;;;;;;6279553;28;20040;-61
2023/05/14 13:17:29;;;;;;;5.20;3.53;;;;;;;;;;6279229;28;20538;-62
2023/05/14 13:20:30;;;;;;;4.37;2.80;;;;;;;;;;6282194;28;20055;-61
2023/05/14 13:23:30;;;;;;;4.47;2.77;;;;;;;;;;6277802;28;20057;-58
2023/05/14 13:26:31;;;;;;;4.87;2.73;;;;;;;;;;6281015;28;20056;-59
2023/05/14 13:29:32;;;;;;;5.47;3.40;;;;;;;;;;6278781;28;20484;-56
2023/05/14 13:32:32;;;;;;;5.10;2.87;;;;;;;;;;6278897;28;20076;-55
2023/05/14 13:35:33;;;;;;;7.43;3.00;;;;;;;;;;6277321;28;20090;-60
2023/05/14 13:38:34;;;;;;;5.45;2.92;;;;;;;;;;6282092;28;20503;-58
2023/05/14 13:41:36;;;;;;;5.43;2.97;;;;;;;;;;6281356;28;20102;-60
2023/05/14 13:44:37;;;;;;;6.85;3.40;;;;;;;;;;6276968;28;20048;-58
2023/05/14 13:47:37;;;;;;;5.07;3.40;;;;;;;;;;6281017;28;20657;-61
2023/05/14 13:50:38;;;;;;;4.90;3.30;;;;;;;;;;6280976;28;20048;-60
2023/05/14 13:53:39;;;;;;;5.73;3.20;;;;;;;;;;6278598;28;20053;-58
2023/05/14 13:56:40;;;;;;;6.27;3.70;;;;;;;;;;6278568;28;20052;-58
2023/05/14 13:59:40;;;;;;;6.90;4.10;;;;;;;;;;6280813;28;20591;-58
2023/05/14 14:02:41;;;;;;;4.67;3.13;;;;;;;;;;6280361;28;20051;-60
2023/05/14 14:05:42;;;;;;;4.63;3.10;;;;;;;;;;6279244;28;20071;-59
2023/05/14 14:08:43;;;;;;;;;;;;;;;;;;6281479;28;20167;-55
2023/05/14 14:11:44;;;;;;;6.43;4.82;;;;;;;;;;6277910;28;20330;-61
2023/05/14 14:14:45;;;;;;;4.40;2.90;;;;;;;;;;6278048;28;20053;-55
2023/05/14 14:17:45;;;;;;;5.80;2.90;;;;;;;;;;6280313;28;20053;-56
2023/05/14 14:20:46;;;;;;;6.10;2.50;;;;;;;;;;6280188;28;20067;-60
2023/05/14 14:23:47;;;;;;;6.33;2.50;;;;;;;;;;6276406;28;20044;-62
2023/05/14 14:26:48;;;;;;;5.15;3.10;;;;;;;;;;6279430;28;20059;-55
2023/05/14 14:29:48;;;;;;;5.87;3.10;;;;;;;;;;6280383;28;20044;-60
2023/05/14 14:32:49;;;;;;;9.90;4.10;;;;;;;;;;6277554;28;20491;-51
2023/05/14 14:35:50;;;;;;;6.50;3.37;;;;;;;;;;6277154;28;20072;-56
2023/05/14 14:38:51;;;;;;;7.70;3.30;;;;;;;;;;6280684;28;20133;-64
2023/05/14 14:41:51;;;;;;;6.10;3.10;;;;;;;;;;6281266;28;20289;-60
2023/05/14 14:44:52;;;;;;;4.67;3.40;;;;;;;;;;6275760;28;20048;-62
2023/05/14 14:48:21;;;;;;;5.57;2.67;;;;;;;;;;6273652;28;20056;-63
2023/05/14 14:51:22;;;;;;;7.53;3.60;;;;;;;;;;6271901;28;20043;-54
2023/05/14 14:54:22;;;;;;;5.40;3.47;;;;;;;;;;6270629;28;20049;-61
2023/05/14 14:57:23;;;;;;;4.67;2.77;;;;;;;;;;6273567;28;20839;-62
2023/05/14 15:00:24;;;;;;;4.03;2.17;;;;;;;;;;6273445;28;20041;-61
2023/05/14 15:03:25;;;;;;;4.17;2.63;;;;;;;;;;6274120;28;20118;-62
2023/05/14 15:06:25;;;;;;;5.67;2.80;;;;;;;;;;6273466;28;20060;-58
2023/05/14 15:09:26;;;;;;;4.27;2.87;;;;;;;;;;6276149;28;20106;-64
2023/05/14 15:12:26;;;;;;;8.90;3.57;;;;;;;;;;6278668;28;20057;-59
2023/05/14 15:15:27;;;;;;;7.00;3.90;;;;;;;;;;6273678;28;20055;-60
2023/05/14 15:18:28;;;;;;;7.40;3.97;;;;;;;;;;6275114;28;20048;-58
2023/05/14 15:21:28;;;;;;;6.67;3.03;;;;;;;;;;6278492;28;20069;-61
2023/05/14 15:24:29;;;;;;;6.37;3.10;;;;;;;;;;6283748;28;20479;-59
2023/05/14 15:27:29;;;;;;;7.13;3.20;;;;;;;;;;6283412;28;20044;-59
2023/05/14 15:30:30;;;;;;;6.03;3.13;;;;;;;;;;6285085;28;20047;-57
2023/05/14 15:33:32;;;;;;;7.93;3.13;;;;;;;;;;6285091;28;20050;-60
2023/05/14 15:36:33;;;;;;;9.27;4.63;;;;;;;;;;6284237;28;20056;-58
2023/05/14 15:39:33;;;;;;;6.13;3.30;;;;;;;;;;6280509;28;20131;-57
2023/05/14 15:42:38;;;;;;;5.33;2.70;;;;;;;;;;6283477;28;20048;-60
2023/05/14 15:45:39;;;;;;;5.50;2.83;;;;;;;;;;6284838;28;20059;-61
2023/05/14 15:48:39;;;;;;;6.97;3.43;;;;;;;;;;6283272;28;20052;-60
2023/05/14 15:51:40;;;;;;;6.07;2.63;;;;;;;;;;6283903;28;20086;-61
2023/05/14 15:54:41;;;;;;;5.57;2.63;;;;;;;;;;6283383;28;20048;-57
2023/05/14 15:57:41;;;;;;;5.47;2.70;;;;;;;;;;6281271;28;20062;-60
2023/05/14 16:00:42;;;;;;;7.23;3.53;;;;;;;;;;6283512;28;20044;-59
2023/05/14 16:03:43;;;;;;;6.70;3.60;;;;;;;;;;6283388;28;20057;-57
2023/05/14 16:06:44;;;;;;;12.13;3.70;;;;;;;;;;6284208;28;20060;-62
2023/05/14 16:09:44;;;;;;;6.03;3.27;;;;;;;;;;6283326;28;20399;-58
2023/05/14 16:12:45;;;;;;;17.17;9.73;;;;;;;;;;6281412;28;21188;-61
2023/05/14 16:15:46;;;;;;;5.60;3.10;;;;;;;;;;6280969;28;20101;-62
2023/05/14 16:18:46;;;;;;;4.50;2.67;;;;;;;;;;6279403;28;20046;-64
2023/05/14 16:21:47;;;;;;;5.63;3.30;;;;;;;;;;6282621;28;20135;-62
2023/05/14 16:24:47;;;;;;;5.77;3.27;;;;;;;;;;6282543;28;20408;-61
2023/05/14 16:27:48;;;;;;;6.83;3.70;;;;;;;;;;6281200;28;20480;-59
2023/05/14 16:30:49;;;;;;;6.97;3.73;;;;;;;;;;6283367;28;20090;-63
2023/05/14 16:33:49;;;;;;;6.53;3.85;;;;;;;;;;6282361;28;20048;-62
2023/05/14 16:36:50;;;;;;;8.17;3.53;;;;;;;;;;6280259;28;20414;-55
2023/05/14 16:39:50;;;;;;;11.02;3.63;;;;;;;;;;6274358;28;20067;-56
2023/05/14 16:42:51;;;;;;;5.30;2.93;;;;;;;;;;6280775;28;20047;-58
2023/05/14 16:45:52;;;;;;;6.47;3.13;;;;;;;;;;6281225;28;20120;-60
2023/05/14 16:48:52;;;;;;;6.13;3.73;;;;;;;;;;6276683;28;20052;-56
2023/05/14 16:51:53;;;;;;;8.47;4.00;;;;;;;;;;6281203;28;20048;-58
2023/05/14 16:54:53;;;;;;;7.30;4.07;;;;;;;;;;6279021;28;20404;-61
2023/05/14 16:57:54;;;;;;;8.77;5.27;;;;;;;;;;6277848;28;20056;-63
2023/05/14 17:00:54;;;;;;;10.77;5.70;;;;;;;;;;6279205;28;20056;-60
2023/05/14 17:03:55;;;;;;;9.80;5.60;;;;;;;;;;6279573;28;20049;-62
2023/05/14 17:06:56;;;;;;;9.50;5.40;;;;;;;;;;6279622;28;20568;-58
2023/05/14 17:09:58;;;;;;;10.27;6.00;;;;;;;;;;6276828;28;20509;-59
2023/05/14 17:12:59;;;;;;;10.18;5.57;;;;;;;;;;6279861;28;20048;-54
2023/05/14 17:16:18;;;;;;;10.45;6.18;;;;;;;;;;6279885;28;20555;-60
2023/05/14 17:19:18;;;;;;;9.73;6.13;;;;;;;;;;6277821;28;20150;-56
2023/05/14 17:22:19;;;;;;;10.30;5.57;;;;;;;;;;6279807;28;20051;-60
2023/05/14 17:25:22;;;;;;;8.43;5.33;;;;;;;;;;6278387;28;20051;-60
2023/05/14 17:28:23;;;;;;;12.52;6.63;;;;;;;;;;6276091;28;20055;-61
2023/05/14 17:31:24;;;;;;;8.73;5.10;;;;;;;;;;6278733;28;20052;-59
2023/05/14 17:34:24;;;;;;;8.25;5.20;;;;;;;;;;6278310;28;20048;-60
2023/05/14 17:37:25;;;;;;;9.35;4.75;;;;;;;;;;6274803;28;20565;-58
2023/05/14 17:40:26;;;;;;;9.45;4.47;;;;;;;;;;6277587;28;20049;-59
2023/05/14 17:43:26;;;;;;;7.82;4.22;;;;;;;;;;6277372;28;20048;-59
2023/05/14 17:46:27;;;;;;;8.02;4.38;;;;;;;;;;6277496;28;20151;-62
2023/05/14 17:49:28;;;;;;;11.57;6.18;;;;;;;;;;6275706;28;20052;-60
2023/05/14 17:52:28;;;;;;;9.57;4.43;;;;;;;;;;6279109;28;20167;-62
2023/05/14 17:55:29;;;;;;;6.17;3.33;;;;;;;;;;6275988;28;20045;-60
2023/05/14 18:10:49;;;;;;;5.03;3.10;;;;;;;;;;6311786;27;20378;-59